createdAt,value
2023-09-02T00:00:04.714Z,98576.84
2023-09-02T00:02:31.114Z,98576.03
2023-09-02T00:04:57.737Z,98575.00
2023-09-02T00:07:24.194Z,98575.00
2023-09-02T00:09:50.657Z,98585.66
2023-09-02T00:12:17.008Z,98588.31
2023-09-02T00:14:43.383Z,98577.91
2023-09-02T00:17:09.997Z,98572.56
2023-09-02T00:19:36.425Z,98582.41
2023-09-02T00:22:02.940Z,98578.16
2023-09-02T00:24:29.308Z,98574.44
2023-09-02T00:26:55.656Z,98571.78
2023-09-02T00:29:22.031Z,98575.50
2023-09-02T00:31:48.472Z,98581.06
2023-09-02T00:34:14.854Z,98589.03
2023-09-02T00:36:41.286Z,98578.34
2023-09-02T00:39:07.667Z,98582.34
2023-09-02T00:41:38.433Z,98582.34
2023-09-02T00:44:04.929Z,98578.91
2023-09-02T00:46:31.316Z,98584.22
2023-09-02T00:48:57.672Z,98583.41
2023-09-02T00:51:24.018Z,98581.56
2023-09-02T00:53:50.386Z,98581.81
2023-09-02T00:56:16.804Z,98589.78
2023-09-02T00:58:43.304Z,98587.13
2023-09-02T01:01:09.836Z,98591.63
2023-09-02T01:03:39.276Z,98584.69
2023-09-02T01:06:06.007Z,98585.50
2023-09-02T01:08:32.429Z,98586.31
2023-09-02T01:10:59.394Z,98586.31
2023-09-02T01:13:25.945Z,98594.31
2023-09-02T01:15:55.651Z,98595.31
2023-09-02T01:18:24.601Z,98590.81
2023-09-02T01:20:56.685Z,98596.97
2023-09-02T01:23:29.202Z,98589.47
2023-09-02T01:26:10.355Z,98605.97
2023-09-02T01:28:36.781Z,98610.47
2023-09-02T01:31:03.395Z,98615.25
2023-09-02T01:33:29.940Z,98615.72
2023-09-02T01:35:56.437Z,98626.94
2023-09-02T01:38:23.062Z,98623.22
2023-09-02T01:40:50.456Z,98628.78
2023-09-02T01:43:21.926Z,98630.41
2023-09-02T01:45:48.721Z,98623.22
2023-09-02T01:48:15.084Z,98624.28
2023-09-02T01:50:42.079Z,98628.78
2023-09-02T01:53:09.979Z,98633.06
2023-09-02T01:55:36.406Z,98635.72
2023-09-02T01:58:03.247Z,98637.56
2023-09-02T02:00:29.693Z,98634.91
2023-09-02T02:02:56.700Z,98634.09
2023-09-02T02:05:40.344Z,98634.91
2023-09-02T02:08:10.493Z,98639.19
2023-09-02T02:10:36.953Z,98641.84
2023-09-02T02:13:03.643Z,98642.06
2023-09-02T02:15:30.427Z,98635.72
2023-09-02T02:17:56.909Z,98648.22
2023-09-02T02:20:23.396Z,98640.25
2023-09-02T02:22:49.770Z,98641.19
2023-09-02T02:25:16.255Z,98643.91
2023-09-02T02:27:42.725Z,98644.72
2023-09-02T02:30:09.279Z,98643.91
2023-09-02T02:32:35.658Z,98643.13
2023-09-02T02:35:02.474Z,98638.06
2023-09-02T02:37:28.843Z,98646.03
2023-09-02T02:39:55.231Z,98640.41
2023-09-02T02:42:23.668Z,98638.84
2023-09-02T02:44:50.089Z,98634.81
2023-09-02T02:47:16.445Z,98637.25
2023-09-02T02:49:42.814Z,98641.78
2023-09-02T02:52:09.247Z,98644.44
2023-09-02T02:54:38.341Z,98646.28
2023-09-02T02:57:04.733Z,98640.97
2023-09-02T02:59:31.418Z,98650.78
2023-09-02T03:01:57.842Z,98652.63
2023-09-02T03:04:24.220Z,98649.16
2023-09-02T03:06:50.613Z,98654.47
2023-09-02T03:09:17.050Z,98648.38
2023-09-02T03:11:43.423Z,98651.81
2023-09-02T03:14:09.903Z,98652.63
2023-09-02T03:16:36.680Z,98657.16
2023-09-02T03:19:03.186Z,98650.78
2023-09-02T03:21:29.771Z,98654.47
2023-09-02T03:23:56.126Z,98647.31
2023-09-02T03:26:25.490Z,98646.50
2023-09-02T03:28:52.365Z,98648.38
2023-09-02T03:31:18.784Z,98648.38
2023-09-02T03:33:45.189Z,98640.41
2023-09-02T03:36:23.498Z,98647.56
2023-09-02T03:38:49.946Z,98649.44
2023-09-02T03:41:18.589Z,98648.63
2023-09-02T03:43:46.133Z,98649.69
2023-09-02T03:46:12.527Z,98660.31
2023-09-02T03:48:38.921Z,98655.00
2023-09-02T03:51:06.710Z,98662.13
2023-09-02T03:53:33.224Z,98654.16
2023-09-02T03:55:59.812Z,98649.84
2023-09-02T03:58:26.746Z,98660.53
2023-09-02T04:00:53.130Z,98664.00
2023-09-02T04:03:21.392Z,98657.06
2023-09-02T04:05:48.561Z,98657.88
2023-09-02T04:08:19.803Z,98657.88
2023-09-02T04:10:50.286Z,98670.38
2023-09-02T04:13:16.822Z,98670.38
2023-09-02T04:15:43.449Z,98671.41
2023-09-02T04:18:09.823Z,98679.16
2023-09-02T04:20:36.616Z,98682.59
2023-09-02T04:23:03.084Z,98676.47
2023-09-02T04:25:29.442Z,98673.03
2023-09-02T04:27:55.838Z,98677.53
2023-09-02T04:30:23.514Z,98679.94
2023-09-02T04:32:50.464Z,98679.41
2023-09-02T04:35:17.045Z,98677.28
2023-09-02T04:37:43.453Z,98675.13
2023-09-02T04:40:11.165Z,98675.94
2023-09-02T04:42:39.616Z,98685.75
2023-09-02T04:45:06.204Z,98685.75
2023-09-02T04:47:32.652Z,98692.13
2023-09-02T04:49:59.072Z,98696.41
2023-09-02T04:52:25.614Z,98705.97
2023-09-02T04:54:52.129Z,98704.59
2023-09-02T04:57:20.425Z,98699.28
2023-09-02T04:59:47.706Z,98715.00
2023-09-02T05:02:14.062Z,98714.44
2023-09-02T05:04:40.425Z,98712.56
2023-09-02T05:07:06.779Z,98711.28
2023-09-02T05:09:33.154Z,98709.19
2023-09-02T05:11:59.523Z,98711.38
2023-09-02T05:14:25.974Z,98715.16
2023-09-02T05:16:52.390Z,98715.72
2023-09-02T05:19:18.759Z,98717.88
2023-09-02T05:21:45.469Z,98717.09
2023-09-02T05:24:11.840Z,98722.41
2023-09-02T05:26:38.187Z,98719.50
2023-09-02T05:29:04.639Z,98722.16
2023-09-02T05:31:31.753Z,98729.31
2023-09-02T05:33:58.175Z,98723.75
2023-09-02T05:36:24.563Z,98721.09
2023-09-02T05:38:51.140Z,98727.00
2023-09-02T05:41:17.532Z,98731.00
2023-09-02T05:43:43.884Z,98734.25
2023-09-02T05:46:10.334Z,98741.09
2023-09-02T05:48:36.757Z,98737.94
2023-09-02T05:51:03.156Z,98745.34
2023-09-02T05:53:30.933Z,98744.88
2023-09-02T05:55:57.430Z,98750.53
2023-09-02T05:58:24.269Z,98747.78
2023-09-02T06:00:51.015Z,98749.63
2023-09-02T06:03:17.661Z,98750.44
2023-09-02T06:05:44.226Z,98744.06
2023-09-02T06:08:10.980Z,98745.13
2023-09-02T06:10:37.741Z,98743.34
2023-09-02T06:13:04.266Z,98746.06
2023-09-02T06:15:30.704Z,98741.38
2023-09-02T06:17:57.208Z,98748.69
2023-09-02T06:20:23.827Z,98742.25
2023-09-02T06:22:50.223Z,98746.28
2023-09-02T06:25:16.714Z,98753.06
2023-09-02T06:27:43.108Z,98755.00
2023-09-02T06:30:09.801Z,98761.91
2023-09-02T06:32:36.598Z,98765.22
2023-09-02T06:35:03.586Z,98770.88
2023-09-02T06:37:30.377Z,98770.63
2023-09-02T06:39:56.937Z,98766.41
2023-09-02T06:42:23.510Z,98758.66
2023-09-02T06:44:55.675Z,98757.38
2023-09-02T06:47:22.262Z,98760.94
2023-09-02T06:49:48.648Z,98760.94
2023-09-02T06:52:15.042Z,98758.28
2023-09-02T06:54:41.442Z,98767.66
2023-09-02T06:57:07.851Z,98759.41
2023-09-02T06:59:34.643Z,98765.13
2023-09-02T07:02:01.020Z,98760.13
2023-09-02T07:04:27.441Z,98770.53
2023-09-02T07:06:54.329Z,98777.97
2023-09-02T07:09:20.746Z,98778.66
2023-09-02T07:11:47.112Z,98774.50
2023-09-02T07:14:13.487Z,98776.59
2023-09-02T07:16:39.878Z,98785.59
2023-09-02T07:19:06.263Z,98788.03
2023-09-02T07:21:32.705Z,98789.78
2023-09-02T07:23:59.068Z,98793.50
2023-09-02T07:26:28.471Z,98797.78
2023-09-02T07:28:54.877Z,98795.78
2023-09-02T07:31:21.454Z,98803.84
2023-09-02T07:33:47.881Z,98799.50
2023-09-02T07:36:14.311Z,98805.22
2023-09-02T07:38:41.288Z,98809.16
2023-09-02T07:41:10.155Z,98816.31
2023-09-02T07:43:36.616Z,98814.72
2023-09-02T07:46:03.048Z,98816.09
2023-09-02T07:48:29.473Z,98820.38
2023-09-02T07:50:55.868Z,98824.63
2023-09-02T07:53:22.283Z,98821.97
2023-09-02T07:55:48.727Z,98836.09
2023-09-02T07:58:15.098Z,98847.53
2023-09-02T08:00:41.935Z,98849.13
2023-09-02T08:03:08.483Z,98852.03
2023-09-02T08:05:37.602Z,98855.75
2023-09-02T08:08:04.059Z,98867.47
2023-09-02T08:10:30.549Z,98866.88
2023-09-02T08:12:56.912Z,98865.81
2023-09-02T08:15:23.334Z,98864.00
2023-09-02T08:17:49.713Z,98861.81
2023-09-02T08:20:16.368Z,98866.66
2023-09-02T08:22:44.276Z,98866.41
2023-09-02T08:25:11.349Z,98871.72
2023-09-02T08:27:37.745Z,98872.53
2023-09-02T08:30:04.529Z,98880.50
2023-09-02T08:32:31.246Z,98884.22
2023-09-02T08:34:57.731Z,98882.38
2023-09-02T08:37:24.083Z,98885.03
2023-09-02T08:39:52.202Z,98881.56
2023-09-02T08:42:21.128Z,98892.22
2023-09-02T08:44:48.569Z,98891.41
2023-09-02T08:47:15.978Z,98892.22
2023-09-02T08:49:42.367Z,98889.53
2023-09-02T08:52:09.012Z,98894.63
2023-09-02T08:54:36.114Z,98904.47
2023-09-02T08:57:02.999Z,98908.72
2023-09-02T08:59:29.829Z,98913.81
2023-09-02T09:01:56.196Z,98911.97
2023-09-02T09:04:22.589Z,98913.00
2023-09-02T09:06:48.969Z,98922.81
2023-09-02T09:09:15.327Z,98921.81
2023-09-02T09:11:42.854Z,98920.75
2023-09-02T09:14:19.117Z,98915.66
2023-09-02T09:16:45.520Z,98927.94
2023-09-02T09:19:12.555Z,98924.47
2023-09-02T09:21:39.217Z,98924.47
2023-09-02T09:24:05.726Z,98936.94
2023-09-02T09:26:32.097Z,98932.66
2023-09-02T09:28:59.253Z,98940.44
2023-09-02T09:31:25.790Z,98941.25
2023-09-02T09:34:01.786Z,98936.72
2023-09-02T09:36:28.741Z,98927.69
2023-09-02T09:38:56.056Z,98926.63
2023-09-02T09:41:23.773Z,98933.38
2023-09-02T09:44:05.922Z,98942.38
2023-09-02T09:46:52.308Z,98936.75
2023-09-02T09:49:22.063Z,98942.63
2023-09-02T09:51:48.428Z,98942.63
2023-09-02T09:54:14.833Z,98941.81
2023-09-02T09:56:44.366Z,98945.34
2023-09-02T09:59:10.753Z,98951.00
2023-09-02T10:01:38.083Z,98943.53
2023-09-02T10:04:07.928Z,98946.72
2023-09-02T10:06:38.118Z,98940.09
2023-09-02T10:09:04.791Z,98928.97
2023-09-02T10:11:31.191Z,98936.06
2023-09-02T10:13:58.441Z,98936.13
2023-09-02T10:16:26.870Z,98924.75
2023-09-02T10:19:00.547Z,98934.88
2023-09-02T10:21:26.899Z,98933.09
2023-09-02T10:23:55.563Z,98939.00
2023-09-02T10:26:42.159Z,98948.69
2023-09-02T10:29:09.345Z,98946.28
2023-09-02T10:31:43.458Z,98948.34
2023-09-02T10:34:20.911Z,98952.41
2023-09-02T10:36:48.844Z,98953.47
2023-09-02T10:39:17.869Z,98957.50
2023-09-02T10:41:46.141Z,98954.03
2023-09-02T10:44:14.048Z,98958.88
2023-09-02T10:46:40.644Z,98948.28
2023-09-02T10:49:07.003Z,98956.06
2023-09-02T10:51:35.487Z,98958.59
2023-09-02T10:54:03.196Z,98961.88
2023-09-02T10:56:36.153Z,98963.50
2023-09-02T10:59:02.519Z,98960.53
2023-09-02T11:01:45.588Z,98962.38
2023-09-02T11:04:12.006Z,98963.19
2023-09-02T11:06:38.386Z,98961.41
2023-09-02T11:09:04.864Z,98962.53
2023-09-02T11:11:57.126Z,98968.50
2023-09-02T11:14:23.568Z,98968.50
2023-09-02T11:17:09.861Z,98970.94
2023-09-02T11:19:55.013Z,98979.09
2023-09-02T11:22:41.848Z,98975.78
2023-09-02T11:25:08.221Z,98972.56
2023-09-02T11:27:47.023Z,98970.44
2023-09-02T11:30:13.702Z,98968.50
2023-09-02T11:32:45.945Z,98971.97
2023-09-02T11:35:12.751Z,98972.16
2023-09-02T11:37:39.124Z,98967.78
2023-09-02T11:40:15.209Z,98967.09
2023-09-02T11:42:48.228Z,98978.59
2023-09-02T11:45:15.021Z,98977.06
2023-09-02T11:47:41.426Z,98985.06
2023-09-02T11:50:17.568Z,98984.91
2023-09-02T11:52:43.973Z,98982.00
2023-09-02T11:55:10.762Z,98982.00
2023-09-02T11:57:37.437Z,98981.66
2023-09-02T12:00:04.353Z,98986.19
2023-09-02T12:02:30.800Z,98978.94
2023-09-02T12:04:57.183Z,98982.06
2023-09-02T12:07:23.607Z,98971.28
2023-09-02T12:09:51.004Z,98972.31
2023-09-02T12:12:17.446Z,98971.91
2023-09-02T12:14:43.961Z,98972.81
2023-09-02T12:17:10.540Z,98972.88
2023-09-02T12:19:37.014Z,98968.94
2023-09-02T12:22:03.492Z,98972.31
2023-09-02T12:24:30.958Z,98979.47
2023-09-02T12:26:57.398Z,98976.50
2023-09-02T12:29:25.004Z,98977.31
2023-09-02T12:32:00.702Z,98969.66
2023-09-02T12:34:33.366Z,98970.53
2023-09-02T12:36:59.762Z,98976.50
2023-09-02T12:39:27.508Z,98971.44
2023-09-02T12:41:54.161Z,98974.72
2023-09-02T12:44:20.659Z,98974.16
2023-09-02T12:46:49.836Z,98980.38
2023-09-02T12:49:16.562Z,98972.16
2023-09-02T12:51:42.969Z,98974.56
2023-09-02T12:54:13.066Z,98969.66
2023-09-02T12:56:39.590Z,98964.00
2023-09-02T12:59:06.313Z,98961.25
2023-09-02T13:01:32.768Z,98961.56
2023-09-02T13:03:59.458Z,98963.19
2023-09-02T13:06:30.381Z,98956.53
2023-09-02T13:08:56.839Z,98960.59
2023-09-02T13:11:26.732Z,98968.41
2023-09-02T13:13:53.554Z,98963.81
2023-09-02T13:16:20.316Z,98964.84
2023-09-02T13:18:46.778Z,98945.72
2023-09-02T13:21:13.533Z,98958.88
2023-09-02T13:23:39.927Z,98961.84
2023-09-02T13:26:08.674Z,98960.06
2023-09-02T13:28:38.103Z,98963.97
2023-09-02T13:31:04.781Z,98962.66
2023-09-02T13:33:31.194Z,98959.75
2023-09-02T13:35:59.930Z,98974.69
2023-09-02T13:38:26.350Z,98966.75
2023-09-02T13:40:52.754Z,98965.00
2023-09-02T13:43:20.771Z,98963.63
2023-09-02T13:45:47.450Z,98964.44
2023-09-02T13:48:13.861Z,98968.06
2023-09-02T13:50:40.278Z,98979.69
2023-09-02T13:53:06.706Z,98985.03
2023-09-02T13:55:35.607Z,98985.03
2023-09-02T13:58:02.225Z,98992.75
2023-09-02T14:00:29.367Z,98995.44
2023-09-02T14:02:55.828Z,98989.41
2023-09-02T14:05:22.729Z,98997.22
2023-09-02T14:07:49.471Z,98993.50
2023-09-02T14:10:16.286Z,98999.63
2023-09-02T14:12:42.654Z,98992.63
2023-09-02T14:15:09.200Z,98994.31
2023-09-02T14:17:35.670Z,98988.44
2023-09-02T14:20:02.056Z,98992.69
2023-09-02T14:22:28.421Z,98989.97
2023-09-02T14:24:54.766Z,98980.50
2023-09-02T14:27:21.814Z,98989.41
2023-09-02T14:29:48.221Z,98982.97
2023-09-02T14:32:14.579Z,98977.13
2023-09-02T14:34:40.979Z,98971.25
2023-09-02T14:37:08.289Z,98980.09
2023-09-02T14:39:34.835Z,98983.75
2023-09-02T14:42:01.582Z,98986.41
2023-09-02T14:44:28.025Z,98979.31
2023-09-02T14:46:54.381Z,98981.34
2023-09-02T14:49:20.954Z,98984.00
2023-09-02T14:51:48.320Z,98979.09
2023-09-02T14:54:15.075Z,98982.16
2023-09-02T14:56:44.998Z,98985.63
2023-09-02T14:59:14.353Z,98984.50
2023-09-02T15:01:41.329Z,98979.78
2023-09-02T15:04:09.209Z,98986.41
2023-09-02T15:06:35.847Z,98987.28
2023-09-02T15:09:03.045Z,98982.53
2023-09-02T15:11:29.471Z,98985.94
2023-09-02T15:13:55.879Z,98982.38
2023-09-02T15:16:22.314Z,98989.56
2023-09-02T15:18:49.587Z,98985.03
2023-09-02T15:21:16.677Z,98977.63
2023-09-02T15:23:43.651Z,98977.63
2023-09-02T15:26:10.304Z,98971.72
2023-09-02T15:28:39.453Z,98970.91
2023-09-02T15:31:05.802Z,98976.81
2023-09-02T15:33:32.219Z,98988.28
2023-09-02T15:36:01.799Z,98994.94
2023-09-02T15:38:28.152Z,98992.06
2023-09-02T15:40:54.509Z,98995.28
2023-09-02T15:43:21.215Z,98989.41
2023-09-02T15:45:47.934Z,98994.88
2023-09-02T15:48:14.571Z,99004.97
2023-09-02T15:50:40.991Z,99008.19
2023-09-02T15:53:07.488Z,99005.31
2023-09-02T15:55:33.862Z,99006.13
2023-09-02T15:58:00.272Z,99007.63
2023-09-02T16:00:26.675Z,99011.44
2023-09-02T16:02:53.255Z,99005.94
2023-09-02T16:05:19.976Z,99009.75
2023-09-02T16:07:53.148Z,99011.75
2023-09-02T16:10:19.522Z,99011.44
2023-09-02T16:12:45.912Z,99013.72
2023-09-02T16:15:12.670Z,99007.81
2023-09-02T16:17:40.708Z,99011.13
2023-09-02T16:20:08.184Z,99020.16
2023-09-02T16:22:34.599Z,99012.41
2023-09-02T16:25:00.956Z,99022.03
2023-09-02T16:27:27.306Z,99019.50
2023-09-02T16:29:53.666Z,99018.53
2023-09-02T16:32:21.503Z,99006.59
2023-09-02T16:34:47.872Z,99011.28
2023-09-02T16:37:16.471Z,99013.19
2023-09-02T16:39:43.579Z,99016.94
2023-09-02T16:42:09.950Z,99021.28
2023-09-02T16:44:36.300Z,99022.06
2023-09-02T16:47:02.673Z,99023.72
2023-09-02T16:49:29.438Z,99014.56
2023-09-02T16:52:02.866Z,99025.31
2023-09-02T16:54:30.490Z,99023.06
2023-09-02T16:56:57.389Z,99023.53
2023-09-02T16:59:23.792Z,99030.22
2023-09-02T17:01:50.196Z,99026.13
2023-09-02T17:04:16.570Z,99029.91
2023-09-02T17:06:44.130Z,99035.47
2023-09-02T17:09:11.971Z,99037.81
2023-09-02T17:11:38.348Z,99035.50
2023-09-02T17:14:06.390Z,99034.19
2023-09-02T17:16:32.801Z,99040.09
2023-09-02T17:18:59.250Z,99047.03
2023-09-02T17:21:25.613Z,99039.84
2023-09-02T17:23:51.998Z,99050.50
2023-09-02T17:26:18.362Z,99047.03
2023-09-02T17:28:45.100Z,99043.31
2023-09-02T17:31:11.815Z,99046.78
2023-09-02T17:33:38.474Z,99036.13
2023-09-02T17:36:05.120Z,99047.59
2023-09-02T17:38:31.539Z,99044.13
2023-09-02T17:40:58.082Z,99047.59
2023-09-02T17:43:24.434Z,99047.38
2023-09-02T17:45:50.851Z,99055.34
2023-09-02T17:48:17.359Z,99055.56
2023-09-02T17:50:43.835Z,99058.25
2023-09-02T17:53:10.260Z,99062.75
2023-09-02T17:55:36.610Z,99065.41
2023-09-02T17:58:06.260Z,99066.47
2023-09-02T18:00:32.694Z,99083.25
2023-09-02T18:03:01.183Z,99079.78
2023-09-02T18:05:27.723Z,99081.66
2023-09-02T18:07:54.099Z,99081.41
2023-09-02T18:10:20.722Z,99093.09
2023-09-02T18:12:47.084Z,99093.91
2023-09-02T18:15:13.493Z,99086.97
2023-09-02T18:17:39.903Z,99091.78
2023-09-02T18:20:06.853Z,99091.97
2023-09-02T18:22:33.258Z,99094.44
2023-09-02T18:24:59.643Z,99108.66
2023-09-02T18:27:26.075Z,99108.19
2023-09-02T18:29:52.446Z,99118.84
2023-09-02T18:32:19.380Z,99127.38
2023-09-02T18:34:45.927Z,99130.03
2023-09-02T18:37:14.418Z,99134.31
2023-09-02T18:39:40.779Z,99134.56
2023-09-02T18:42:07.170Z,99135.38
2023-09-02T18:44:33.531Z,99136.16
2023-09-02T18:47:00.015Z,99133.75
2023-09-02T18:49:26.482Z,99130.28
2023-09-02T18:51:52.852Z,99133.75
2023-09-02T18:54:19.251Z,99139.09
2023-09-02T18:56:45.686Z,99147.06
2023-09-02T18:59:12.215Z,99153.44
2023-09-02T19:01:39.436Z,99160.38
2023-09-02T19:04:07.838Z,99164.09
2023-09-02T19:06:35.911Z,99162.25
2023-09-02T19:09:02.588Z,99152.63
2023-09-02T19:11:29.365Z,99164.09
2023-09-02T19:13:56.935Z,99157.13
2023-09-02T19:16:23.959Z,99151.72
2023-09-02T19:18:50.341Z,99157.13
2023-09-02T19:21:16.728Z,99165.13
2023-09-02T19:23:43.084Z,99167.78
2023-09-02T19:26:10.169Z,99163.28
2023-09-02T19:28:36.574Z,99170.69
2023-09-02T19:31:04.150Z,99169.09
2023-09-02T19:33:31.481Z,99167.47
2023-09-02T19:35:58.182Z,99176.25
2023-09-02T19:38:24.537Z,99176.47
2023-09-02T19:40:50.943Z,99165.81
2023-09-02T19:43:17.359Z,99163.66
2023-09-02T19:45:43.889Z,99168.50
2023-09-02T19:48:10.415Z,99164.00
2023-09-02T19:50:42.120Z,99165.81
2023-09-02T19:53:08.540Z,99167.13
2023-09-02T19:55:34.896Z,99157.53
2023-09-02T19:58:01.275Z,99164.47
2023-09-02T20:00:27.628Z,99161.56
2023-09-02T20:02:54.020Z,99172.22
2023-09-02T20:05:20.390Z,99165.28
2023-09-02T20:07:46.796Z,99167.69
2023-09-02T20:10:16.014Z,99181.00
2023-09-02T20:12:44.503Z,99187.13
2023-09-02T20:15:10.977Z,99185.31
2023-09-02T20:17:37.373Z,99194.31
2023-09-02T20:20:03.832Z,99190.63
2023-09-02T20:22:30.188Z,99188.97
2023-09-02T20:24:56.558Z,99197.78
2023-09-02T20:27:25.057Z,99197.78
2023-09-02T20:29:51.965Z,99196.97
2023-09-02T20:32:18.435Z,99195.34
2023-09-02T20:34:44.923Z,99200.69
2023-09-02T20:37:13.637Z,99192.44
2023-09-02T20:39:40.038Z,99186.31
2023-09-02T20:42:06.403Z,99186.31
2023-09-02T20:44:33.032Z,99182.84
2023-09-02T20:46:59.388Z,99190.63
2023-09-02T20:49:25.748Z,99187.38
2023-09-02T20:51:53.006Z,99191.88
2023-09-02T20:54:19.467Z,99193.50
2023-09-02T20:56:46.110Z,99200.44
2023-09-02T20:59:12.479Z,99207.63
2023-09-02T21:01:38.918Z,99209.25
2023-09-02T21:04:05.388Z,99206.81
2023-09-02T21:06:31.800Z,99214.00
2023-09-02T21:08:58.291Z,99214.00
2023-09-02T21:11:24.656Z,99214.00
2023-09-02T21:13:51.106Z,99211.34
2023-09-02T21:16:18.112Z,99215.84
2023-09-02T21:18:44.657Z,99218.16
2023-09-02T21:21:11.050Z,99202.78
2023-09-02T21:23:37.792Z,99219.31
2023-09-02T21:26:07.923Z,99225.69
2023-09-02T21:28:37.856Z,99232.63
2023-09-02T21:31:05.191Z,99234.72
2023-09-02T21:33:31.865Z,99229.41
2023-09-02T21:35:58.238Z,99232.06
2023-09-02T21:38:24.690Z,99241.91
2023-09-02T21:40:59.844Z,99245.59
2023-09-02T21:43:26.464Z,99245.59
2023-09-02T21:45:52.856Z,99245.03
2023-09-02T21:48:19.382Z,99243.44
2023-09-02T21:50:46.037Z,99238.09
2023-09-02T21:53:12.399Z,99243.44
2023-09-02T21:55:46.102Z,99244.47
2023-09-02T21:58:12.453Z,99245.28
2023-09-02T22:00:38.805Z,99251.16
2023-09-02T22:03:05.304Z,99247.94
2023-09-02T22:05:31.752Z,99252.13
2023-09-02T22:07:58.110Z,99250.50
2023-09-02T22:10:24.463Z,99252.13
2023-09-02T22:12:50.986Z,99249.44
2023-09-02T22:15:17.352Z,99247.59
2023-09-02T22:17:44.033Z,99252.13
2023-09-02T22:20:10.408Z,99252.91
2023-09-02T22:22:36.848Z,99250.50
2023-09-02T22:25:03.705Z,99262.75
2023-09-02T22:27:30.094Z,99258.25
2023-09-02T22:29:56.440Z,99271.78
2023-09-02T22:32:22.816Z,99272.59
2023-09-02T22:34:49.191Z,99281.59
2023-09-02T22:37:15.856Z,99279.19
2023-09-02T22:39:42.219Z,99273.06
2023-09-02T22:42:08.567Z,99281.03
2023-09-02T22:44:34.910Z,99278.38
2023-09-02T22:47:01.504Z,99280.22
2023-09-02T22:49:27.855Z,99284.50
2023-09-02T22:51:54.242Z,99284.50
2023-09-02T22:54:23.527Z,99281.03
2023-09-02T22:56:49.984Z,99274.91
2023-09-02T22:59:16.343Z,99282.91
2023-09-02T23:01:42.789Z,99286.38
2023-09-02T23:04:09.259Z,99290.44
2023-09-02T23:06:35.872Z,99295.16
2023-09-02T23:09:02.381Z,99291.69
2023-09-02T23:11:30.218Z,99294.34
2023-09-02T23:13:56.601Z,99293.53
2023-09-02T23:16:23.224Z,99298.06
2023-09-02T23:18:49.719Z,99309.50
2023-09-02T23:21:18.830Z,99305.00
2023-09-02T23:23:45.380Z,99309.50
2023-09-02T23:26:12.057Z,99315.06
2023-09-02T23:28:39.815Z,99308.69
2023-09-02T23:31:06.748Z,99314.03
2023-09-02T23:33:33.583Z,99311.56
2023-09-02T23:36:01.681Z,99307.31
2023-09-02T23:38:28.062Z,99301.19
2023-09-02T23:40:54.469Z,99303.03
2023-09-02T23:43:20.982Z,99298.75
2023-09-02T23:45:50.276Z,99306.75
2023-09-02T23:48:16.995Z,99303.28
2023-09-02T23:50:44.760Z,99315.78
2023-09-02T23:53:11.179Z,99313.09
2023-09-02T23:55:37.561Z,99315.16
2023-09-02T23:58:03.984Z,99320.25
